RJTT/HND METAR and TAF weather

Enter ICAO airport designator
Station Type Date Time Source
RJTT METAR 2020/01/27 13:30 UTC NOAA

RJTT 271330Z 01019KT 9999 -RA BKN012 BKN030 05/03 Q1022 NOSIG


Station Type Date Time Source
RJTT Decoded METAR 2020/01/27 13:30 UTC NOAA

Tokyo International Airport, Japan (RJTT) 35-33N 139-47E 8M
Jan 27, 2020 - 08:30 AM EST / 2020.01.27 1330 UTC
Wind: from the N (010 degrees) at 22 MPH (19 KT):0
Visibility: greater than 7 mile(s):0
Sky conditions: mostly cloudy
Weather: light rain
Temperature: 41 F (5 C)
Dew Point: 37 F (3 C)
Relative Humidity: 86%
Pressure (altimeter): 30.18 in. Hg (1022 hPa)
ob: RJTT 271330Z 01019KT 9999 -RA BKN012 BKN030 05/03 Q1022 NOSIG
cycle: 13

Station Type Date Time Source
RJTT TAF 2020/01/27 13:58 UTC NOAA

TAF
AMD RJTT 271341Z 2713/2818 36018KT 9999 -RA FEW006 BKN012
BECMG 2713/2715 4000 -RASN BR FEW005 BKN008
TEMPO 2715/2718 1500 -SN BR FEW003 BKN005
TEMPO 2718/2721 3000 -RASN BR
TEMPO 2806/2809 2000 SHRA BR
TEMPO 2809/2815 1500 TSRA BR FEW003 BKN005 BKN015CB

Example: see airport list